Time;durP1;ratioP1;P1;durP2;ratioP2;P2;SDS_P1;SDS_P2;PMS_P1;PMS_P2;Temp;Humidity;BMP_temperature;BMP_pressure;BME280_temperature;BME280_humidity;BME280_pressure;Samples;Min_cycle;Max_cycle;Signal;HPM_P1;HPM_P2
2022/07/16 00:05:47;;;;;;;2.20;1.20;;;24.00;50.20;;;;;;220407;1268;22549;-60
2022/07/16 00:10:52;;;;;;;2.80;1.50;;;23.90;50.10;;;;;;220360;1267;22819;-60
2022/07/16 00:15:56;;;;;;;3.50;1.60;;;23.90;50.50;;;;;;220276;1267;22634;-61
2022/07/16 00:20:59;;;;;;;2.70;1.40;;;23.90;50.10;;;;;;220222;1267;24594;-59
2022/07/16 00:26:03;;;;;;;2.60;1.50;;;23.90;50.30;;;;;;220366;1267;22612;-60
2022/07/16 00:31:06;;;;;;;2.30;1.20;;;23.90;50.10;;;;;;220887;1268;22634;-59
2022/07/16 00:36:10;;;;;;;2.20;1.40;;;23.90;50.20;;;;;;220469;1268;25563;-61
2022/07/16 00:41:17;;;;;;;2.60;1.40;;;23.80;50.10;;;;;;220757;1268;25245;-62
2022/07/16 00:46:21;;;;;;;1.90;1.20;;;23.80;50.20;;;;;;220229;1267;22608;-60
2022/07/16 00:51:26;;;;;;;4.10;1.30;;;23.80;50.20;;;;;;220359;1268;22541;-61
2022/07/16 00:56:30;;;;;;;2.30;1.20;;;23.80;50.20;;;;;;220219;1270;24223;-60
2022/07/16 01:01:35;;;;;;;2.40;1.30;;;23.80;50.20;;;;;;220632;1267;22541;-60
2022/07/16 01:06:39;;;;;;;2.60;1.50;;;23.80;50.20;;;;;;220448;1268;22559;-61
2022/07/16 01:11:47;;;;;;;2.40;1.30;;;23.80;50.30;;;;;;220077;1269;24345;-61
2022/07/16 01:16:51;;;;;;;2.60;1.40;;;23.80;50.20;;;;;;220306;1267;22551;-61
2022/07/16 01:21:55;;;;;;;2.60;1.50;;;23.80;50.20;;;;;;220044;1268;23036;-62
2022/07/16 01:26:58;;;;;;;2.20;1.20;;;23.80;50.30;;;;;;220432;1267;22534;-62
2022/07/16 01:32:02;;;;;;;2.50;1.40;;;23.70;50.20;;;;;;219022;1270;1750654;-61
2022/07/16 01:37:09;;;;;;;3.60;1.60;;;23.70;50.30;;;;;;220656;1267;23941;-61
2022/07/16 01:42:12;;;;;;;2.90;1.50;;;23.70;50.60;;;;;;220736;1267;22626;-61
2022/07/16 01:47:16;;;;;;;3.60;1.60;;;23.70;50.30;;;;;;220289;1268;22587;-60
2022/07/16 01:52:21;;;;;;;3.10;1.50;;;23.70;50.40;;;;;;220354;1266;22537;-60
2022/07/16 01:57:25;;;;;;;4.70;1.70;;;23.70;50.30;;;;;;220192;1268;22532;-60
2022/07/16 02:02:28;;;;;;;3.50;1.40;;;23.70;50.30;;;;;;220594;1267;23035;-61
2022/07/16 02:07:32;;;;;;;2.30;1.40;;;23.60;50.30;;;;;;220481;1267;22532;-61
2022/07/16 02:12:37;;;;;;;3.20;1.60;;;23.60;50.40;;;;;;220702;1268;22528;-60
2022/07/16 02:17:41;;;;;;;2.50;1.40;;;23.60;50.30;;;;;;220439;1268;23962;-60
2022/07/16 02:22:45;;;;;;;3.30;1.70;;;23.60;50.60;;;;;;220321;1268;22560;-60
2022/07/16 02:28:07;;;;;;;4.00;1.60;;;23.60;50.30;;;;;;220673;1267;25499;-62
2022/07/16 02:33:13;;;;;;;2.70;1.40;;;23.60;50.60;;;;;;220492;1267;22533;-60
2022/07/16 02:38:17;;;;;;;2.50;1.40;;;23.50;50.40;;;;;;220335;1267;23903;-61
2022/07/16 02:43:20;;;;;;;5.00;1.60;;;23.50;49.90;;;;;;220460;1267;25437;-60
2022/07/16 02:48:25;;;;;;;2.70;1.40;;;23.50;50.40;;;;;;220497;1267;25455;-60
2022/07/16 02:53:29;;;;;;;2.30;1.30;;;23.60;50.40;;;;;;220293;1267;24398;-62
2022/07/16 02:58:33;;;;;;;3.00;1.60;;;23.50;50.40;;;;;;220265;1270;22532;-60
2022/07/16 03:03:36;;;;;;;3.70;1.70;;;23.50;50.40;;;;;;220135;1270;24216;-62
2022/07/16 03:08:40;;;;;;;4.30;1.70;;;23.50;50.40;;;;;;220308;1268;22622;-59
2022/07/16 03:13:43;;;;;;;2.90;1.80;;;23.50;50.50;;;;;;220182;1269;22620;-61
2022/07/16 03:18:48;;;;;;;4.40;1.40;;;23.50;50.50;;;;;;220728;1267;22739;-61
2022/07/16 03:23:52;;;;;;;2.60;1.40;;;23.50;50.50;;;;;;220515;1267;22576;-61
2022/07/16 03:28:55;;;;;;;2.80;1.50;;;23.40;50.40;;;;;;220515;1267;22723;-61
2022/07/16 03:33:59;;;;;;;3.30;1.60;;;23.40;50.50;;;;;;220384;1268;25530;-61
2022/07/16 03:39:06;;;;;;;3.50;1.60;;;23.50;50.60;;;;;;220765;1267;22566;-61
2022/07/16 03:44:11;;;;;;;2.40;1.50;;;23.40;50.60;;;;;;220682;1267;23894;-60
2022/07/16 03:49:15;;;;;;;3.70;1.40;;;23.40;50.90;;;;;;220470;1268;25351;-61
2022/07/16 03:54:19;;;;;;;3.20;1.50;;;23.40;50.90;;;;;;220294;1267;24292;-61
2022/07/16 03:59:22;;;;;;;3.30;1.70;;;23.40;50.60;;;;;;220831;1267;25233;-60
2022/07/16 04:04:26;;;;;;;3.00;1.60;;;23.40;50.60;;;;;;220552;1268;22680;-61
2022/07/16 04:09:30;;;;;;;3.40;1.50;;;23.40;50.70;;;;;;220337;1267;24745;-61
2022/07/16 04:14:34;;;;;;;2.70;1.50;;;23.30;50.60;;;;;;220497;1267;22546;-64
2022/07/16 04:19:38;;;;;;;3.20;1.40;;;23.40;50.70;;;;;;220415;1267;23909;-58
2022/07/16 04:24:42;;;;;;;2.80;1.60;;;23.40;51.00;;;;;;220258;1267;22640;-61
2022/07/16 04:29:46;;;;;;;3.50;1.50;;;23.40;50.70;;;;;;220304;1267;22621;-60
2022/07/16 04:34:49;;;;;;;3.00;1.50;;;23.40;50.80;;;;;;220497;1267;23068;-61
2022/07/16 04:39:53;;;;;;;2.90;1.40;;;23.40;50.80;;;;;;220244;1267;25458;-61
2022/07/16 04:44:56;;;;;;;2.00;1.20;;;23.40;50.80;;;;;;220818;1267;22519;-63
2022/07/16 04:50:00;;;;;;;2.10;1.40;;;23.30;50.80;;;;;;220450;1270;24216;-62
2022/07/16 04:55:06;;;;;;;2.40;1.50;;;23.40;50.80;;;;;;220161;1270;25690;-61
2022/07/16 05:00:10;;;;;;;2.80;1.70;;;23.30;51.50;;;;;;220286;1267;25270;-62
2022/07/16 05:05:14;;;;;;;3.50;1.40;;;23.30;51.10;;;;;;220115;1270;24200;-61
2022/07/16 05:10:18;;;;;;;2.00;1.20;;;23.30;50.40;;;;;;220628;1268;22550;-60
2022/07/16 05:15:29;;;;;;;2.40;1.30;;;23.40;50.90;;;;;;220953;1267;23500;-61
2022/07/16 05:20:43;;;;;;;2.80;1.50;;;23.30;50.90;;;;;;220300;1267;22528;-61
2022/07/16 05:25:50;;;;;;;3.50;1.80;;;23.30;50.80;;;;;;220154;1268;24221;-59
2022/07/16 05:30:55;;;;;;;2.30;1.50;;;23.30;50.90;;;;;;220336;1267;25482;-61
2022/07/16 05:35:59;;;;;;;2.40;1.50;;;23.40;50.90;;;;;;220680;1267;22637;-61
2022/07/16 05:41:06;;;;;;;2.70;1.50;;;23.30;51.20;;;;;;220340;1270;22627;-62
2022/07/16 05:46:10;;;;;;;2.80;1.40;;;23.40;50.90;;;;;;220643;1268;24395;-61
2022/07/16 05:51:16;;;;;;;2.80;1.30;;;23.40;50.90;;;;;;220620;1267;23083;-61
2022/07/16 05:56:23;;;;;;;2.90;1.60;;;23.40;50.90;;;;;;220933;1267;22531;-60
2022/07/16 06:01:36;;;;;;;2.70;1.50;;;23.40;50.90;;;;;;220645;1267;22529;-61
2022/07/16 06:06:40;;;;;;;2.80;1.60;;;23.40;50.80;;;;;;220626;1267;25407;-60
2022/07/16 06:11:46;;;;;;;2.30;1.50;;;23.40;51.20;;;;;;220706;1267;22674;-60
2022/07/16 06:16:53;;;;;;;1.80;1.10;;;23.40;50.80;;;;;;220493;1267;22551;-61
2022/07/16 06:21:57;;;;;;;3.20;1.60;;;23.40;50.70;;;;;;220682;1268;22845;-57
2022/07/16 06:27:00;;;;;;;2.10;1.20;;;23.40;50.80;;;;;;220575;1270;22559;-61
2022/07/16 06:32:05;;;;;;;3.30;1.50;;;23.40;50.70;;;;;;220122;1270;24422;-63
2022/07/16 06:37:08;;;;;;;3.20;1.50;;;23.50;50.80;;;;;;220750;1270;24251;-61
2022/07/16 06:42:12;;;;;;;2.00;1.30;;;23.50;50.80;;;;;;220499;1267;24408;-61
2022/07/16 06:47:15;;;;;;;2.60;1.60;;;23.50;51.00;;;;;;221054;1267;24325;-61
2022/07/16 06:52:19;;;;;;;2.70;1.30;;;23.50;50.60;;;;;;220459;1267;24893;-60
2022/07/16 06:57:23;;;;;;;2.80;1.50;;;23.50;50.60;;;;;;220288;1267;22625;-61
2022/07/16 07:02:27;;;;;;;2.10;1.10;;;23.50;50.70;;;;;;220644;1267;25399;-61
2022/07/16 07:07:31;;;;;;;4.10;1.70;;;23.60;50.60;;;;;;220502;1268;22547;-60
2022/07/16 07:12:34;;;;;;;3.20;1.60;;;23.60;50.60;;;;;;220663;1270;23920;-61
2022/07/16 07:17:38;;;;;;;2.50;1.30;;;23.60;50.90;;;;;;220464;1268;22549;-62
2022/07/16 07:22:41;;;;;;;3.10;1.10;;;23.60;50.60;;;;;;220183;1270;22532;-61
2022/07/16 07:27:45;;;;;;;2.00;1.20;;;23.60;50.60;;;;;;220545;1269;22544;-61
2022/07/16 07:32:49;;;;;;;2.40;1.40;;;23.60;50.50;;;;;;220874;1267;22759;-60
2022/07/16 07:37:53;;;;;;;4.30;1.50;;;23.60;50.90;;;;;;220467;1268;22710;-60
2022/07/16 07:42:59;;;;;;;2.30;1.40;;;23.60;50.50;;;;;;220806;1269;22541;-62
2022/07/16 07:48:09;;;;;;;2.30;1.20;;;23.60;50.50;;;;;;220818;1267;24289;-61
2022/07/16 07:53:19;;;;;;;2.30;1.40;;;23.70;50.40;;;;;;220253;1267;22554;-62
2022/07/16 07:58:26;;;;;;;2.10;1.20;;;23.70;50.30;;;;;;220232;1267;22531;-61
2022/07/16 08:03:30;;;;;;;2.00;1.20;;;23.70;50.30;;;;;;220547;1270;22729;-61
2022/07/16 08:09:08;;;;;;;1.60;1.10;;;23.70;50.30;;;;;;220669;1267;24277;-61
2022/07/16 08:14:25;;;;;;;3.70;1.40;;;23.70;50.20;;;;;;220644;1267;25441;-62
2022/07/16 08:19:35;;;;;;;2.20;1.10;;;23.80;50.10;;;;;;220413;1270;22533;-63
2022/07/16 08:30:09;;;;;;;2.00;1.20;;;23.80;50.10;;;;;;220578;1270;24252;-61
2022/07/16 08:35:49;;;;;;;2.00;1.20;;;23.80;50.10;;;;;;219874;1273;22955;-61
2022/07/16 08:41:02;;;;;;;2.70;1.30;;;23.80;50.10;;;;;;220307;1270;22532;-60
2022/07/16 08:46:12;;;;;;;2.80;1.60;;;23.80;50.00;;;;;;220655;1267;25318;-60
2022/07/16 08:51:38;;;;;;;2.00;1.10;;;23.80;49.90;;;;;;220570;1266;24542;-60
2022/07/16 08:56:55;;;;;;;2.90;1.30;;;23.90;50.30;;;;;;220325;1270;24256;-59
2022/07/16 09:02:30;;;;;;;2.30;1.20;;;23.90;49.90;;;;;;220684;1267;25378;-62
2022/07/16 09:07:44;;;;;;;1.70;1.00;;;23.90;50.20;;;;;;220750;1270;22533;-60
2022/07/16 09:12:58;;;;;;;2.10;1.20;;;23.90;49.80;;;;;;220573;1268;24303;-63
2022/07/16 09:18:22;;;;;;;2.20;1.00;;;24.00;49.80;;;;;;220552;1270;24377;-62
2022/07/16 09:23:32;;;;;;;2.40;1.30;;;24.00;49.70;;;;;;221004;1268;22529;-61
2022/07/16 09:28:51;;;;;;;2.50;1.20;;;24.00;49.70;;;;;;220845;1267;23905;-63
2022/07/16 09:34:09;;;;;;;2.70;1.00;;;24.00;50.00;;;;;;220713;1267;26732;-60
2022/07/16 09:39:32;;;;;;;2.30;1.20;;;24.00;49.70;;;;;;220792;1267;22528;-59
2022/07/16 09:44:42;;;;;;;2.00;1.10;;;24.00;49.60;;;;;;220480;1270;24433;-61
2022/07/16 09:49:56;;;;;;;1.70;0.90;;;24.00;49.70;;;;;;220942;1267;22525;-61
2022/07/16 09:55:24;;;;;;;2.20;1.30;;;24.00;49.70;;;;;;220971;1267;24304;-59
2022/07/16 10:00:32;;;;;;;2.50;1.40;;;24.10;49.60;;;;;;220349;1270;22566;-61
2022/07/16 10:05:39;;;;;;;1.90;1.30;;;24.00;49.60;;;;;;220887;1267;25336;-60
2022/07/16 10:11:04;;;;;;;2.30;1.20;;;24.00;49.90;;;;;;220611;1267;24933;-60
2022/07/16 10:16:11;;;;;;;1.70;1.00;;;24.00;49.80;;;;;;220747;1267;22824;-61
2022/07/16 10:21:21;;;;;;;1.80;1.10;;;24.00;49.50;;;;;;220481;1267;25863;-60
2022/07/16 10:26:28;;;;;;;1.70;1.10;;;24.00;49.00;;;;;;220479;1270;22699;-59
2022/07/16 10:32:34;;;;;;;1.90;1.00;;;24.00;49.40;;;;;;220323;1267;23204;-60
2022/07/16 10:37:46;;;;;;;2.30;1.30;;;24.10;49.50;;;;;;220790;1267;22675;-63
2022/07/16 10:43:15;;;;;;;1.60;1.10;;;24.10;49.40;;;;;;220784;1267;22972;-60
2022/07/16 10:48:51;;;;;;;2.10;1.10;;;24.10;49.40;;;;;;220800;1268;25885;-58
2022/07/16 10:54:01;;;;;;;3.50;1.10;;;24.10;49.40;;;;;;220873;1267;24218;-60
2022/07/16 10:59:10;;;;;;;2.20;1.40;;;24.10;49.40;;;;;;220829;1267;24250;-61
2022/07/16 11:04:27;;;;;;;2.10;1.30;;;24.00;49.40;;;;;;220563;1267;22531;-61
2022/07/16 11:09:40;;;;;;;1.50;0.90;;;24.00;49.50;;;;;;220832;1267;22621;-59
2022/07/16 11:14:47;;;;;;;2.40;1.30;;;24.00;49.50;;;;;;220535;1270;24774;-61
2022/07/16 11:19:55;;;;;;;1.80;1.00;;;24.00;49.60;;;;;;220531;1267;23073;-61
2022/07/16 11:25:02;;;;;;;3.20;1.10;;;24.00;49.50;;;;;;221005;1267;25298;-62
2022/07/16 11:30:11;;;;;;;1.80;1.10;;;24.00;49.40;;;;;;220581;1270;22532;-60
2022/07/16 11:35:15;;;;;;;1.90;1.20;;;24.00;49.50;;;;;;220906;1267;22547;-59
2022/07/16 11:40:20;;;;;;;2.30;1.10;;;24.00;49.50;;;;;;220770;1267;22559;-62
2022/07/16 11:45:26;;;;;;;2.20;1.20;;;24.00;49.50;;;;;;220329;1267;23910;-59
2022/07/16 11:50:31;;;;;;;2.20;1.20;;;24.00;49.10;;;;;;220486;1267;27039;-60
2022/07/16 11:55:46;;;;;;;1.60;1.00;;;24.10;49.60;;;;;;220824;1267;25667;-60
2022/07/16 12:00:57;;;;;;;3.10;1.00;;;24.10;50.00;;;;;;220617;1268;25237;-61
2022/07/16 12:06:06;;;;;;;1.70;1.00;;;24.10;49.70;;;;;;220297;1271;22657;-62
2022/07/16 12:11:32;;;;;;;1.80;1.00;;;24.10;49.70;;;;;;220948;1267;22546;-60
2022/07/16 12:16:54;;;;;;;1.70;1.00;;;24.10;49.80;;;;;;220633;1267;24299;-64
2022/07/16 12:22:09;;;;;;;1.90;1.20;;;24.20;49.90;;;;;;220445;1270;24178;-61
2022/07/16 12:28:03;;;;;;;2.40;1.10;;;24.20;50.00;;;;;;220343;1267;25385;-60
2022/07/16 12:33:18;;;;;;;2.30;1.20;;;24.20;50.30;;;;;;220200;1270;22532;-59
2022/07/16 12:38:47;;;;;;;2.10;1.20;;;24.10;50.00;;;;;;220282;1267;25407;-62
2022/07/16 12:44:01;;;;;;;2.30;1.30;;;24.10;50.40;;;;;;220779;1269;22680;-61
2022/07/16 12:49:11;;;;;;;1.50;1.10;;;24.10;50.20;;;;;;220777;1268;22556;-59
2022/07/16 12:54:17;;;;;;;1.90;1.10;;;24.00;50.30;;;;;;220733;1268;22729;-60
2022/07/16 12:59:52;;;;;;;1.90;1.10;;;24.00;50.50;;;;;;220558;1268;22703;-62
2022/07/16 13:05:31;;;;;;;3.30;1.30;;;24.00;50.40;;;;;;219173;1274;22545;-61
2022/07/16 13:11:01;;;;;;;2.70;1.20;;;24.10;50.70;;;;;;219801;1273;24433;-58
2022/07/16 13:16:44;;;;;;;2.10;1.00;;;24.10;50.50;;;;;;219549;1277;22787;-62
2022/07/16 13:22:22;;;;;;;2.40;1.00;;;24.10;50.50;;;;;;219732;1275;24349;-62
2022/07/16 13:28:14;;;;;;;1.60;0.90;;;24.10;50.60;;;;;;219868;1274;22574;-62
2022/07/16 13:33:38;;;;;;;;;;;24.10;50.60;;;;;;217286;1267;3720585;-60
2022/07/16 13:39:17;;;;;;;2.90;1.10;;;24.10;50.70;;;;;;220643;1268;26563;-61
2022/07/16 13:45:22;;;;;;;;;;;24.10;51.00;;;;;;220553;1270;23926;-65
2022/07/16 13:51:08;;;;;;;;;;;;;;;;;;;;;
2022/07/16 13:56:32;;;;;;;1.60;1.10;;;24.20;50.90;;;;;;220073;1269;22535;-60
2022/07/16 14:02:08;;;;;;;2.10;1.10;;;24.20;50.90;;;;;;220221;1271;22660;-63
2022/07/16 14:07:22;;;;;;;3.00;1.10;;;24.20;51.00;;;;;;220345;1269;24498;-60
2022/07/16 14:12:39;;;;;;;1.50;1.00;;;24.20;51.40;;;;;;220445;1269;22533;-60
2022/07/16 14:18:26;;;;;;;3.60;1.30;;;24.20;51.00;;;;;;220542;1268;24119;-61
2022/07/16 14:23:33;;;;;;;2.10;1.00;;;24.20;51.40;;;;;;220399;1268;25368;-61
2022/07/16 14:29:02;;;;;;;2.60;1.10;;;24.20;51.50;;;;;;220389;1268;22560;-61
2022/07/16 14:34:21;;;;;;;3.30;1.20;;;24.10;51.10;;;;;;220539;1268;22567;-61
2022/07/16 14:39:43;;;;;;;2.80;1.20;;;24.10;51.10;;;;;;220427;1268;22552;-60
2022/07/16 14:44:53;;;;;;;1.60;1.20;;;24.20;51.20;;;;;;220455;1268;23957;-58
2022/07/16 14:50:09;;;;;;;1.60;1.00;;;24.20;51.50;;;;;;220505;1268;22537;-61
2022/07/16 14:55:28;;;;;;;1.50;1.00;;;24.20;51.10;;;;;;220788;1268;24195;-61
2022/07/16 15:00:45;;;;;;;2.90;1.00;;;24.10;51.10;;;;;;220443;1267;25369;-61
2022/07/16 15:05:57;;;;;;;1.90;1.20;;;24.20;51.30;;;;;;220591;1267;22688;-60
2022/07/16 15:11:00;;;;;;;2.10;1.20;;;24.20;51.00;;;;;;220626;1268;25296;-61
2022/07/16 15:16:04;;;;;;;1.50;0.90;;;24.10;51.10;;;;;;220398;1268;24350;-62
2022/07/16 15:21:16;;;;;;;1.40;0.90;;;24.20;51.00;;;;;;220686;1268;23941;-62
2022/07/16 15:26:20;;;;;;;1.70;1.00;;;24.20;51.40;;;;;;220641;1267;24293;-60
2022/07/16 15:31:24;;;;;;;1.90;1.10;;;24.20;50.90;;;;;;220366;1268;22739;-63
2022/07/16 15:36:29;;;;;;;1.90;1.10;;;24.20;50.90;;;;;;220271;1268;24253;-62
2022/07/16 15:41:34;;;;;;;2.50;1.20;;;24.20;51.10;;;;;;220439;1268;22624;-62
2022/07/16 15:46:40;;;;;;;2.00;1.20;;;24.20;51.10;;;;;;220113;1268;23076;-61
2022/07/16 15:51:43;;;;;;;2.10;1.20;;;24.20;50.80;;;;;;220387;1268;24000;-61
2022/07/16 15:56:47;;;;;;;1.90;1.10;;;24.20;51.30;;;;;;220618;1267;24325;-60
2022/07/16 16:01:53;;;;;;;1.50;1.00;;;24.20;51.10;;;;;;220582;1268;24720;-61
2022/07/16 16:07:23;;;;;;;1.50;1.00;;;24.10;51.10;;;;;;220099;1271;25379;-61
2022/07/16 16:12:31;;;;;;;1.40;1.00;;;24.10;51.10;;;;;;220993;1267;22619;-62
2022/07/16 16:17:43;;;;;;;2.10;1.30;;;24.10;51.00;;;;;;220352;1267;22645;-62
2022/07/16 16:22:53;;;;;;;2.30;1.00;;;24.10;50.90;;;;;;220327;1268;23022;-61
2022/07/16 16:27:57;;;;;;;2.00;1.10;;;24.10;51.00;;;;;;220566;1268;24260;-62
2022/07/16 16:33:01;;;;;;;2.10;1.20;;;24.10;51.10;;;;;;220223;1270;24398;-60
2022/07/16 16:38:05;;;;;;;2.00;1.10;;;24.10;51.20;;;;;;220361;1269;22706;-61
2022/07/16 16:43:09;;;;;;;1.90;1.30;;;24.10;51.10;;;;;;220741;1267;22545;-62
2022/07/16 16:48:13;;;;;;;2.40;1.30;;;24.00;51.20;;;;;;220458;1268;25249;-61
2022/07/16 16:53:17;;;;;;;2.20;1.20;;;24.10;51.20;;;;;;220281;1268;25441;-62
2022/07/16 16:58:21;;;;;;;1.60;1.20;;;24.10;51.20;;;;;;220927;1267;22560;-62
2022/07/16 17:03:38;;;;;;;2.20;1.30;;;24.10;51.30;;;;;;220687;1268;22997;-60
2022/07/16 17:08:49;;;;;;;2.90;1.30;;;24.10;51.30;;;;;;220588;1268;24243;-56
2022/07/16 17:13:56;;;;;;;2.00;1.20;;;24.10;51.30;;;;;;220360;1270;22577;-54
2022/07/16 17:19:02;;;;;;;2.70;1.20;;;24.10;51.40;;;;;;220506;1267;25430;-61
2022/07/16 17:24:10;;;;;;;2.60;1.00;;;24.10;51.40;;;;;;220371;1268;22819;-62
2022/07/16 17:29:25;;;;;;;2.70;1.20;;;24.10;51.50;;;;;;220284;1267;24448;-61
2022/07/16 17:34:29;;;;;;;1.70;1.00;;;24.00;51.50;;;;;;220390;1267;23165;-61
2022/07/16 17:39:34;;;;;;;2.30;1.30;;;24.10;51.60;;;;;;220599;1268;24386;-64
2022/07/16 17:44:40;;;;;;;1.40;0.90;;;24.00;51.60;;;;;;220148;1267;23006;-62
2022/07/16 17:49:52;;;;;;;2.00;1.20;;;24.00;51.70;;;;;;220526;1267;22572;-61
2022/07/16 17:54:59;;;;;;;2.50;1.30;;;24.00;51.80;;;;;;220376;1267;25239;-60
2022/07/16 18:00:07;;;;;;;1.80;1.10;;;24.00;51.80;;;;;;220564;1267;22547;-61
2022/07/16 18:05:14;;;;;;;2.10;1.20;;;24.00;51.90;;;;;;220051;1268;25997;-61
2022/07/16 18:10:18;;;;;;;1.60;1.10;;;24.00;52.00;;;;;;220592;1268;22819;-61
2022/07/16 18:15:21;;;;;;;1.90;1.10;;;24.00;52.00;;;;;;220700;1268;25161;-61
2022/07/16 18:20:25;;;;;;;2.10;1.10;;;24.00;52.40;;;;;;220302;1267;25310;-60
2022/07/16 18:25:35;;;;;;;1.70;1.10;;;24.00;52.50;;;;;;220312;1268;23115;-60
2022/07/16 18:30:48;;;;;;;1.70;1.00;;;24.00;52.20;;;;;;220191;1267;24206;-60
2022/07/16 18:35:55;;;;;;;2.10;1.10;;;24.00;52.50;;;;;;220384;1267;24154;-59
2022/07/16 18:41:02;;;;;;;2.00;1.10;;;23.90;52.50;;;;;;220390;1268;25305;-60
2022/07/16 18:46:12;;;;;;;1.90;1.10;;;23.90;52.60;;;;;;220731;1267;24228;-60
2022/07/16 18:51:24;;;;;;;3.60;1.40;;;24.00;52.60;;;;;;220333;1267;22701;-61
2022/07/16 18:56:41;;;;;;;1.50;1.10;;;23.90;52.20;;;;;;220192;1267;22704;-60
2022/07/16 19:01:58;;;;;;;1.80;0.90;;;23.90;52.30;;;;;;220125;1267;22543;-61
2022/07/16 19:07:06;;;;;;;2.00;1.10;;;23.90;52.30;;;;;;220552;1267;24101;-61
2022/07/16 19:12:36;;;;;;;3.00;1.10;;;23.90;52.60;;;;;;220794;1267;22559;-59
2022/07/16 19:17:44;;;;;;;1.80;1.10;;;23.90;52.30;;;;;;220364;1270;22615;-62
2022/07/16 19:22:52;;;;;;;2.80;1.20;;;23.90;52.50;;;;;;220543;1267;24415;-59
2022/07/16 19:28:00;;;;;;;1.90;1.00;;;23.90;52.40;;;;;;220432;1268;24260;-61
2022/07/16 19:33:04;;;;;;;2.20;1.00;;;23.90;52.50;;;;;;220294;1267;24894;-61
2022/07/16 19:38:10;;;;;;;1.70;1.00;;;23.80;52.40;;;;;;220307;1270;22551;-62
2022/07/16 19:43:21;;;;;;;1.80;1.20;;;23.80;52.40;;;;;;220298;1267;22970;-63
2022/07/16 19:48:38;;;;;;;1.70;1.00;;;23.80;52.40;;;;;;220354;1267;24242;-60
2022/07/16 19:53:51;;;;;;;2.20;1.00;;;23.80;52.50;;;;;;220154;1270;22713;-61
2022/07/16 19:59:00;;;;;;;1.50;1.10;;;23.80;52.60;;;;;;220307;1267;24212;-59
2022/07/16 20:04:04;;;;;;;1.40;0.90;;;23.80;52.50;;;;;;220404;1267;23776;-59
2022/07/16 20:09:10;;;;;;;1.80;1.20;;;23.80;53.20;;;;;;220411;1266;22678;-60
2022/07/16 20:14:27;;;;;;;1.70;1.10;;;23.80;52.60;;;;;;220434;1267;24303;-61
2022/07/16 20:19:31;;;;;;;2.30;1.20;;;23.70;52.60;;;;;;220468;1267;24215;-60
2022/07/16 20:24:56;;;;;;;1.50;0.90;;;23.80;52.70;;;;;;220361;1268;24230;-61
2022/07/16 20:30:00;;;;;;;2.20;1.30;;;23.70;52.60;;;;;;220383;1267;24291;-59
2022/07/16 20:35:05;;;;;;;1.80;1.20;;;23.70;53.00;;;;;;220262;1267;22544;-60
2022/07/16 20:40:11;;;;;;;1.90;1.10;;;23.70;52.70;;;;;;220258;1267;22651;-60
2022/07/16 20:45:15;;;;;;;1.80;1.20;;;23.70;52.80;;;;;;220333;1267;24950;-60
2022/07/16 20:50:19;;;;;;;2.40;1.60;;;23.70;52.80;;;;;;220254;1268;22544;-61
2022/07/16 20:55:24;;;;;;;2.10;1.20;;;23.60;52.70;;;;;;220342;1267;22547;-59
2022/07/16 21:00:28;;;;;;;1.70;1.00;;;23.60;52.70;;;;;;220228;1267;24205;-60
2022/07/16 21:05:31;;;;;;;2.00;1.10;;;23.60;52.80;;;;;;220220;1266;25534;-61
2022/07/16 21:10:36;;;;;;;2.50;1.40;;;23.60;53.40;;;;;;220414;1267;25449;-62
2022/07/16 21:15:40;;;;;;;2.20;1.20;;;23.60;52.80;;;;;;220579;1267;22635;-61
2022/07/16 21:20:44;;;;;;;2.20;1.20;;;23.60;52.90;;;;;;220575;1267;25389;-59
2022/07/16 21:25:48;;;;;;;2.30;1.20;;;23.60;52.50;;;;;;220735;1266;22829;-62
2022/07/16 21:30:56;;;;;;;2.50;1.50;;;23.60;52.80;;;;;;220657;1267;22784;-60
2022/07/16 21:36:13;;;;;;;2.40;1.30;;;23.60;52.90;;;;;;220877;1267;24312;-61
2022/07/16 21:41:17;;;;;;;2.20;1.20;;;23.50;52.80;;;;;;220596;1267;24369;-60
2022/07/16 21:46:21;;;;;;;2.40;1.30;;;23.50;52.80;;;;;;220462;1267;25320;-61
2022/07/16 21:51:26;;;;;;;2.80;1.50;;;23.50;52.40;;;;;;220700;1267;24835;-60
2022/07/16 21:56:39;;;;;;;2.10;1.30;;;23.50;52.90;;;;;;220266;1267;24136;-60
2022/07/16 22:01:43;;;;;;;2.20;1.30;;;23.50;52.90;;;;;;220399;1267;22610;-64
2022/07/16 22:06:47;;;;;;;1.90;1.30;;;23.50;52.90;;;;;;220738;1267;22528;-61
2022/07/16 22:11:51;;;;;;;2.70;1.30;;;23.50;53.00;;;;;;220813;1267;22583;-62
2022/07/16 22:16:55;;;;;;;2.30;1.40;;;23.40;53.10;;;;;;220291;1267;22547;-60
2022/07/16 22:21:59;;;;;;;2.50;1.30;;;23.40;52.80;;;;;;220327;1270;25241;-60
2022/07/16 22:27:03;;;;;;;2.70;1.30;;;23.40;52.80;;;;;;220473;1267;23051;-61
2022/07/16 22:32:07;;;;;;;1.90;1.10;;;23.40;52.80;;;;;;220605;1267;22589;-59
2022/07/16 22:37:10;;;;;;;2.50;1.20;;;23.40;52.80;;;;;;220120;1267;22528;-60
2022/07/16 22:42:14;;;;;;;1.80;1.20;;;23.40;52.90;;;;;;220607;1267;24212;-62
2022/07/16 22:47:18;;;;;;;2.50;1.50;;;23.40;52.90;;;;;;220311;1270;22584;-62
2022/07/16 22:52:22;;;;;;;2.70;1.30;;;23.30;52.80;;;;;;220376;1267;22530;-62
2022/07/16 22:57:26;;;;;;;2.60;1.50;;;23.30;52.80;;;;;;220488;1268;25450;-61
2022/07/16 23:02:30;;;;;;;1.90;1.30;;;23.30;52.80;;;;;;220446;1267;22578;-61
2022/07/16 23:07:34;;;;;;;2.20;1.30;;;23.30;52.80;;;;;;220549;1267;22547;-62
2022/07/16 23:12:38;;;;;;;2.00;1.20;;;23.30;52.80;;;;;;220253;1270;24772;-61
2022/07/16 23:17:41;;;;;;;1.70;1.10;;;23.30;52.80;;;;;;220470;1267;22736;-61
2022/07/16 23:22:45;;;;;;;2.30;1.40;;;23.20;52.80;;;;;;220312;1267;24157;-59
2022/07/16 23:27:49;;;;;;;1.90;1.20;;;23.20;53.10;;;;;;220504;1267;22686;-61
2022/07/16 23:32:53;;;;;;;2.20;1.20;;;23.20;53.10;;;;;;220550;1267;25300;-60
2022/07/16 23:37:57;;;;;;;2.00;1.20;;;23.20;53.10;;;;;;220386;1267;24322;-61
2022/07/16 23:43:03;;;;;;;2.10;1.30;;;23.20;52.70;;;;;;220588;1267;22798;-61
2022/07/16 23:48:09;;;;;;;2.70;1.20;;;23.20;52.70;;;;;;221002;1267;25229;-60
2022/07/16 23:53:14;;;;;;;2.10;1.20;;;23.20;52.70;;;;;;220687;1267;22535;-63
2022/07/16 23:58:18;;;;;;;2.00;1.30;;;23.10;52.70;;;;;;220677;1267;25889;-60
